Time;durP1;ratioP1;P1;durP2;ratioP2;P2;SDS_P1;SDS_P2;PMS_P1;PMS_P2;Temp;Humidity;BMP_temperature;BMP_pressure;BME280_temperature;BME280_humidity;BME280_pressure;Samples;Min_cycle;Max_cycle;Signal;HPM_P1;HPM_P2
2022/09/09 00:00:19;;;;;;;1.70;0.70;;;;;24.10;99764.00;;;;2097221;28;20627;-51
2022/09/09 00:01:41;;;;;;;1.42;0.60;;;;;24.10;99761.00;;;;2097075;28;20200;-51
2022/09/09 00:02:44;;;;;;;1.00;0.50;;;;;24.10;99779.00;;;;2097056;28;20220;-51
2022/09/09 00:03:47;;;;;;;1.85;0.70;;;;;24.10;99762.00;;;;2088429;28;20279;-50
2022/09/09 00:05:08;;;;;;;1.00;0.55;;;;;24.00;99755.00;;;;2089233;28;20213;-52
2022/09/09 00:06:19;;;;;;;1.05;0.52;;;;;24.10;99758.00;;;;2096553;28;20204;-52
2022/09/09 00:07:26;;;;;;;1.52;0.60;;;;;24.10;99759.00;;;;2095931;28;20240;-51
2022/09/09 00:08:49;;;;;;;0.90;0.50;;;;;24.00;99754.00;;;;2089246;28;20587;-52
2022/09/09 00:10:20;;;;;;;1.83;0.77;;;;;24.00;99788.00;;;;2091383;28;20216;-51
2022/09/09 00:11:47;;;;;;;1.20;0.50;;;;;24.00;99759.00;;;;2092503;28;20217;-51
2022/09/09 00:12:50;;;;;;;1.40;0.43;;;;;24.00;99753.00;;;;2096771;28;20727;-52
2022/09/09 00:13:52;;;;;;;2.88;0.50;;;;;24.00;99756.00;;;;2097254;28;20644;-52
2022/09/09 00:15:07;;;;;;;1.52;0.50;;;;;24.00;99753.00;;;;2097112;28;20216;-52
2022/09/09 00:16:19;;;;;;;1.35;0.60;;;;;24.10;99720.00;;;;2082174;28;20270;-51
2022/09/09 00:17:39;;;;;;;1.23;0.77;;;;;24.00;99749.00;;;;2082027;28;20220;-52
2022/09/09 00:18:53;;;;;;;0.70;0.40;;;;;24.00;99754.00;;;;2096554;28;20212;-51
2022/09/09 00:20:02;;;;;;;1.70;0.63;;;;;24.00;99749.00;;;;2088020;28;20318;-51
2022/09/09 00:21:07;;;;;;;1.58;0.57;;;;;24.00;99735.00;;;;2090802;28;20221;-52
2022/09/09 00:22:18;;;;;;;0.90;0.50;;;;;24.00;99748.00;;;;2101412;28;20227;-51
2022/09/09 00:23:27;;;;;;;1.35;0.60;;;;;24.00;99752.00;;;;2096528;28;20215;-52
2022/09/09 00:24:32;;;;;;;1.55;0.45;;;;;24.00;99761.00;;;;2096276;28;20223;-52
2022/09/09 00:25:42;;;;;;;1.15;0.68;;;;;24.00;99734.00;;;;2087962;28;20247;-52
2022/09/09 00:26:48;;;;;;;1.15;0.50;;;;;24.00;99756.00;;;;2089565;28;20640;-51
2022/09/09 00:27:49;;;;;;;1.75;0.60;;;;;24.00;99755.00;;;;2087134;28;20213;-52
2022/09/09 00:29:00;;;;;;;1.63;0.70;;;;;24.00;99758.00;;;;2080077;28;20218;-51
2022/09/09 00:30:22;;;;;;;1.73;0.60;;;;;24.00;99755.00;;;;2089549;28;20228;-52
2022/09/09 00:31:27;;;;;;;1.23;0.55;;;;;24.00;99752.00;;;;2094904;28;20270;-51
2022/09/09 00:32:30;;;;;;;0.98;0.40;;;;;24.00;99753.00;;;;2096611;28;20265;-51
2022/09/09 00:33:31;;;;;;;1.52;0.70;;;;;24.00;99761.00;;;;2097047;28;20341;-51
2022/09/09 00:34:31;;;;;;;0.93;0.60;;;;;24.00;99735.00;;;;2097222;28;20667;-52
2022/09/09 00:35:36;;;;;;;0.70;0.40;;;;;24.00;99757.00;;;;2096160;28;20212;-51
2022/09/09 00:36:37;;;;;;;1.35;0.40;;;;;24.00;99734.00;;;;2088301;28;20220;-52
2022/09/09 00:37:38;;;;;;;1.10;0.50;;;;;24.00;99756.00;;;;2087297;28;20218;-52
2022/09/09 00:38:47;;;;;;;0.90;0.50;;;;;24.00;99759.00;;;;2090445;28;20467;-51
2022/09/09 00:39:48;;;;;;;1.80;0.60;;;;;24.00;99758.00;;;;2087909;28;20593;-51
2022/09/09 00:41:12;;;;;;;2.30;0.60;;;;;24.00;99771.00;;;;2079645;28;20210;-52
2022/09/09 00:42:17;;;;;;;1.30;0.68;;;;;24.00;99747.00;;;;2091291;28;20223;-51
2022/09/09 00:43:30;;;;;;;0.70;0.47;;;;;24.00;99741.00;;;;2096185;28;20223;-51
2022/09/09 00:44:34;;;;;;;1.10;0.40;;;;;24.00;99743.00;;;;2093764;28;20224;-51
2022/09/09 00:45:52;;;;;;;0.98;0.40;;;;;24.00;99741.00;;;;2095408;28;20347;-51
2022/09/09 00:47:07;;;;;;;1.05;0.40;;;;;24.00;99748.00;;;;2092617;28;20251;-52
2022/09/09 00:48:10;;;;;;;1.77;0.63;;;;;24.00;99749.00;;;;2094960;28;20737;-52
2022/09/09 00:49:37;;;;;;;0.88;0.40;;;;;24.00;99740.00;;;;2095996;28;20699;-52
2022/09/09 00:50:58;;;;;;;0.90;0.50;;;;;24.00;99732.00;;;;2089366;28;20688;-51
2022/09/09 00:52:01;;;;;;;0.80;0.43;;;;;24.00;99746.00;;;;2093591;28;20215;-51
2022/09/09 00:53:32;;;;;;;0.60;0.30;;;;;24.00;99753.00;;;;2088299;28;20224;-52
2022/09/09 00:54:49;;;;;;;1.65;0.47;;;;;24.00;99750.00;;;;2092667;28;20216;-53
2022/09/09 00:56:34;;;;;;;1.38;0.50;;;;;24.00;99751.00;;;;2089669;28;20216;-51
2022/09/09 00:57:35;;;;;;;1.13;0.50;;;;;24.00;99741.00;;;;2067506;28;20329;-51
2022/09/09 00:58:35;;;;;;;0.95;0.40;;;;;24.00;99752.00;;;;2071268;28;20209;-51
2022/09/09 00:59:41;;;;;;;1.47;0.40;;;;;24.00;99752.00;;;;2079288;28;20233;-52
2022/09/09 01:00:52;;;;;;;2.90;0.52;;;;;24.00;99749.00;;;;2079158;28;20256;-51
2022/09/09 01:01:53;;;;;;;1.40;0.40;;;;;24.00;99744.00;;;;2070919;28;20272;-52
2022/09/09 01:02:57;;;;;;;0.73;0.40;;;;;24.00;99753.00;;;;2074769;28;20248;-52
2022/09/09 01:03:59;;;;;;;1.92;0.50;;;;;24.00;99752.00;;;;2095713;28;20216;-52
2022/09/09 01:05:11;;;;;;;0.77;0.50;;;;;24.00;99751.00;;;;2088482;28;20223;-52
2022/09/09 01:06:31;;;;;;;1.10;0.52;;;;;24.00;99778.00;;;;2079798;28;20212;-52
2022/09/09 01:07:32;;;;;;;1.75;0.40;;;;;24.00;99757.00;;;;2081882;28;20609;-51
2022/09/09 01:08:52;;;;;;;1.07;0.40;;;;;24.00;99622.00;;;;2088410;28;20236;-51
2022/09/09 01:09:54;;;;;;;0.80;0.50;;;;;24.00;99757.00;;;;2082528;28;20240;-52
2022/09/09 01:10:54;;;;;;;2.00;0.60;;;;;24.00;99755.00;;;;2085143;28;20205;-52
2022/09/09 01:12:03;;;;;;;1.50;0.40;;;;;24.00;99751.00;;;;2095402;28;20209;-52
2022/09/09 01:13:05;;;;;;;0.95;0.45;;;;;23.90;99736.00;;;;2088226;28;20255;-52
2022/09/09 01:14:20;;;;;;;1.58;0.50;;;;;23.90;99745.00;;;;2088784;28;21200;-52
2022/09/09 01:15:24;;;;;;;0.90;0.40;;;;;24.00;99748.00;;;;2085663;28;20220;-51
2022/09/09 01:16:24;;;;;;;0.60;0.40;;;;;24.00;99750.00;;;;2081298;28;20582;-52
2022/09/09 01:17:28;;;;;;;0.93;0.40;;;;;23.90;99744.00;;;;2086959;28;20205;-52
2022/09/09 01:18:34;;;;;;;3.80;0.45;;;;;24.00;99711.00;;;;2088307;28;20919;-51
2022/09/09 01:19:40;;;;;;;1.52;0.40;;;;;24.00;99735.00;;;;2087861;28;20410;-52
2022/09/09 01:21:00;;;;;;;0.80;0.43;;;;;24.00;99743.00;;;;2081896;28;20696;-51
2022/09/09 01:22:38;;;;;;;1.70;0.40;;;;;23.90;99738.00;;;;2089284;28;20219;-52
2022/09/09 01:24:01;;;;;;;0.90;0.57;;;;;24.00;99756.00;;;;2095930;28;20204;-51
2022/09/09 01:25:07;;;;;;;0.80;0.40;;;;;24.00;99742.00;;;;2094370;28;20664;-52
2022/09/09 01:26:09;;;;;;;1.85;0.50;;;;;24.00;99735.00;;;;2095413;28;20729;-51
2022/09/09 01:27:10;;;;;;;0.95;0.40;;;;;24.00;99739.00;;;;2095384;28;20228;-51
2022/09/09 01:28:13;;;;;;;0.70;0.40;;;;;24.00;99737.00;;;;2086313;28;20225;-51
2022/09/09 01:29:15;;;;;;;1.10;0.40;;;;;24.00;99737.00;;;;2087674;28;20554;-52
2022/09/09 01:30:17;;;;;;;0.95;0.50;;;;;23.90;99743.00;;;;2095342;28;20246;-52
2022/09/09 01:31:20;;;;;;;0.98;0.50;;;;;23.90;99734.00;;;;2086394;28;20217;-52
2022/09/09 01:32:58;;;;;;;1.35;0.63;;;;;24.00;99739.00;;;;2078783;28;20229;-52
2022/09/09 01:33:58;;;;;;;1.17;0.40;;;;;24.00;99735.00;;;;2067032;28;20210;-52
2022/09/09 01:34:59;;;;;;;0.90;0.50;;;;;23.90;99743.00;;;;2070093;28;21032;-52
2022/09/09 01:36:10;;;;;;;3.30;0.60;;;;;23.90;99741.00;;;;2072020;28;20670;-52
2022/09/09 01:37:10;;;;;;;0.70;0.40;;;;;23.90;99742.00;;;;2087302;28;20697;-52
2022/09/09 01:38:11;;;;;;;0.60;0.40;;;;;24.00;99740.00;;;;2090833;28;20212;-51
2022/09/09 01:39:11;;;;;;;0.90;0.37;;;;;23.90;99740.00;;;;2087108;28;20208;-51
2022/09/09 01:40:11;;;;;;;1.10;0.40;;;;;23.90;99736.00;;;;2095149;28;20217;-52
2022/09/09 01:41:12;;;;;;;1.23;0.73;;;;;24.00;99741.00;;;;2095302;28;20354;-52
2022/09/09 01:42:14;;;;;;;0.87;0.40;;;;;24.00;99739.00;;;;2094969;28;20208;-52
2022/09/09 01:43:14;;;;;;;1.80;0.50;;;;;24.00;99735.00;;;;2096025;28;20204;-51
2022/09/09 01:44:15;;;;;;;0.97;0.43;;;;;23.90;99736.00;;;;2095966;28;20557;-51
2022/09/09 01:45:15;;;;;;;1.10;0.40;;;;;24.00;99737.00;;;;2094847;28;20216;-52
2022/09/09 01:46:16;;;;;;;1.07;0.40;;;;;24.00;99753.00;;;;2095202;28;20644;-52
2022/09/09 01:47:17;;;;;;;0.70;0.40;;;;;23.90;99738.00;;;;2094435;28;20219;-52
2022/09/09 01:48:18;;;;;;;0.90;0.55;;;;;23.90;99734.00;;;;2094682;28;20602;-52
2022/09/09 01:49:18;;;;;;;1.57;0.57;;;;;23.90;99751.00;;;;2095158;28;20387;-52
2022/09/09 01:50:18;;;;;;;0.87;0.40;;;;;23.90;99729.00;;;;2095160;28;20703;-52
2022/09/09 01:51:19;;;;;;;0.80;0.40;;;;;23.90;99730.00;;;;2095336;28;20259;-52
2022/09/09 01:52:19;;;;;;;0.70;0.47;;;;;23.90;99732.00;;;;2095116;28;20315;-52
2022/09/09 01:53:20;;;;;;;1.57;0.40;;;;;23.90;99733.00;;;;2095262;28;20215;-52
2022/09/09 01:54:21;;;;;;;0.82;0.40;;;;;23.90;99724.00;;;;2093602;28;20259;-52
2022/09/09 01:55:29;;;;;;;1.25;0.50;;;;;23.90;99736.00;;;;2086153;28;20560;-53
2022/09/09 01:56:29;;;;;;;1.07;0.50;;;;;23.90;99734.00;;;;2085749;28;20213;-52
2022/09/09 01:57:44;;;;;;;1.67;0.40;;;;;23.90;99721.00;;;;2086205;28;20542;-52
2022/09/09 01:59:09;;;;;;;1.00;0.65;;;;;23.90;99732.00;;;;2094551;28;20260;-52
2022/09/09 02:00:11;;;;;;;1.52;0.50;;;;;23.90;99728.00;;;;2089708;28;20252;-52
2022/09/09 02:01:29;;;;;;;0.80;0.40;;;;;23.90;99731.00;;;;2078621;28;20308;-52
2022/09/09 02:02:34;;;;;;;2.25;0.40;;;;;23.90;99738.00;;;;2076653;28;20213;-52
2022/09/09 02:03:34;;;;;;;1.10;0.45;;;;;23.90;99724.00;;;;2074088;28;20422;-52
2022/09/09 02:04:42;;;;;;;0.83;0.50;;;;;23.90;99732.00;;;;2086545;28;20267;-52
2022/09/09 02:05:46;;;;;;;1.90;0.52;;;;;23.90;99706.00;;;;2098931;28;20248;-52
2022/09/09 02:06:46;;;;;;;0.93;0.38;;;;;23.90;99731.00;;;;2086343;28;20267;-52
2022/09/09 02:07:47;;;;;;;1.20;0.50;;;;;23.90;99728.00;;;;2085571;28;20292;-52
2022/09/09 02:08:52;;;;;;;0.80;0.30;;;;;23.90;99742.00;;;;2094852;28;20216;-52
2022/09/09 02:09:59;;;;;;;1.15;0.43;;;;;23.90;99722.00;;;;2094320;28;20219;-53
2022/09/09 02:11:19;;;;;;;0.70;0.40;;;;;23.90;99740.00;;;;2089994;28;20312;-52
2022/09/09 02:12:19;;;;;;;1.48;0.40;;;;;23.80;99744.00;;;;2072335;28;20225;-52
2022/09/09 02:13:20;;;;;;;0.87;0.40;;;;;23.90;99743.00;;;;2070736;28;20222;-53
2022/09/09 02:14:25;;;;;;;1.10;0.43;;;;;23.90;99717.00;;;;2086155;28;20762;-52
2022/09/09 02:15:30;;;;;;;1.38;0.40;;;;;23.90;99737.00;;;;2077626;28;20284;-52
2022/09/09 02:17:03;;;;;;;1.27;0.68;;;;;23.90;99740.00;;;;2066553;28;20213;-52
2022/09/09 02:18:05;;;;;;;1.02;0.45;;;;;23.90;99724.00;;;;2088314;28;20212;-52
2022/09/09 02:19:12;;;;;;;1.02;0.60;;;;;23.90;99734.00;;;;2090091;28;20208;-52
2022/09/09 02:20:14;;;;;;;0.80;0.50;;;;;23.90;99736.00;;;;2087143;28;20728;-52
2022/09/09 02:21:14;;;;;;;1.63;0.60;;;;;23.90;99736.00;;;;2094333;28;20235;-52
2022/09/09 02:22:16;;;;;;;1.40;0.50;;;;;23.90;99739.00;;;;2094886;28;20204;-52
2022/09/09 02:23:16;;;;;;;1.05;0.50;;;;;23.90;99734.00;;;;2094421;28;20592;-52
2022/09/09 02:24:17;;;;;;;2.47;0.53;;;;;23.90;99743.00;;;;2094328;28;20216;-52
2022/09/09 02:25:19;;;;;;;1.10;0.40;;;;;23.90;99737.00;;;;2094832;28;20224;-52
2022/09/09 02:26:21;;;;;;;0.90;0.43;;;;;23.90;99734.00;;;;2086329;28;21062;-52
2022/09/09 02:27:21;;;;;;;1.77;0.75;;;;;23.90;99739.00;;;;2077588;28;20221;-52
2022/09/09 02:28:23;;;;;;;1.23;0.60;;;;;23.80;99730.00;;;;2094251;28;20212;-52
2022/09/09 02:29:26;;;;;;;0.80;0.40;;;;;23.90;99732.00;;;;2093785;28;20239;-52
2022/09/09 02:30:27;;;;;;;1.95;0.57;;;;;23.90;99737.00;;;;2078073;28;20221;-53
2022/09/09 02:31:27;;;;;;;0.90;0.60;;;;;23.80;99733.00;;;;2078667;28;20217;-53
2022/09/09 02:32:30;;;;;;;0.97;0.50;;;;;23.90;99706.00;;;;2086424;28;20470;-53
2022/09/09 02:33:38;;;;;;;0.80;0.52;;;;;23.90;99731.00;;;;2086889;28;20209;-51
2022/09/09 02:34:42;;;;;;;0.95;0.57;;;;;23.90;99727.00;;;;2086659;28;20204;-52
2022/09/09 02:35:42;;;;;;;1.60;0.70;;;;;23.90;99731.00;;;;2087074;28;20760;-52
2022/09/09 02:36:43;;;;;;;1.70;0.83;;;;;23.80;99756.00;;;;2086414;28;20217;-52
2022/09/09 02:37:46;;;;;;;1.20;0.50;;;;;23.90;99736.00;;;;2085674;28;20272;-52
2022/09/09 02:38:50;;;;;;;1.00;0.52;;;;;23.90;99733.00;;;;2086719;28;20212;-52
2022/09/09 02:39:50;;;;;;;0.93;0.40;;;;;23.90;99711.00;;;;2094784;28;20222;-52
2022/09/09 02:40:51;;;;;;;1.10;0.50;;;;;23.90;99734.00;;;;2086661;28;20693;-52
2022/09/09 02:41:52;;;;;;;1.00;0.50;;;;;23.90;99742.00;;;;2089152;28;20212;-52
2022/09/09 02:42:54;;;;;;;1.40;0.60;;;;;23.90;99733.00;;;;2094832;28;20573;-52
2022/09/09 02:43:54;;;;;;;0.88;0.50;;;;;23.90;99732.00;;;;2095391;28;20458;-52
2022/09/09 02:44:54;;;;;;;1.47;0.73;;;;;23.90;99719.00;;;;2095506;28;20212;-52
2022/09/09 02:46:02;;;;;;;1.33;0.60;;;;;23.90;99737.00;;;;2086485;28;20217;-52
2022/09/09 02:47:25;;;;;;;0.95;0.47;;;;;23.90;99737.00;;;;2087665;28;20242;-52
2022/09/09 02:48:50;;;;;;;1.00;0.60;;;;;23.90;99741.00;;;;2086594;28;20652;-52
2022/09/09 02:50:17;;;;;;;0.93;0.60;;;;;23.90;99738.00;;;;2091734;28;20307;-52
2022/09/09 02:51:23;;;;;;;2.10;0.80;;;;;23.90;99732.00;;;;2089730;28;20379;-52
2022/09/09 02:52:27;;;;;;;1.27;0.57;;;;;23.70;99732.00;;;;2087032;28;20675;-52
2022/09/09 02:53:44;;;;;;;0.90;0.40;;;;;23.90;99711.00;;;;2086436;28;20220;-52
2022/09/09 02:54:44;;;;;;;0.73;0.50;;;;;23.90;99734.00;;;;2082375;28;20220;-52
2022/09/09 02:55:50;;;;;;;1.33;0.50;;;;;23.80;99734.00;;;;2079819;28;20268;-52
2022/09/09 02:56:54;;;;;;;4.18;0.63;;;;;23.90;99705.00;;;;2087204;28;20244;-52
2022/09/09 02:57:54;;;;;;;1.10;0.60;;;;;23.80;99725.00;;;;2085950;28;20311;-52
2022/09/09 02:58:54;;;;;;;2.57;0.70;;;;;23.80;99695.00;;;;2086745;28;20200;-52
2022/09/09 02:59:56;;;;;;;1.07;0.40;;;;;23.90;99712.00;;;;2079960;28;20213;-52
2022/09/09 03:00:57;;;;;;;1.13;0.70;;;;;23.90;99729.00;;;;2078219;28;20206;-52
2022/09/09 03:01:58;;;;;;;1.97;0.67;;;;;23.90;99735.00;;;;2077932;28;20292;-52
2022/09/09 03:02:58;;;;;;;1.40;0.60;;;;;23.90;99732.00;;;;2086140;28;20228;-52
2022/09/09 03:03:59;;;;;;;1.93;0.50;;;;;23.90;99724.00;;;;2087171;28;20765;-52
2022/09/09 03:04:59;;;;;;;1.57;0.60;;;;;23.90;99726.00;;;;2087005;28;20217;-51
2022/09/09 03:05:59;;;;;;;2.07;0.90;;;;;23.90;99723.00;;;;2086848;28;20213;-52
2022/09/09 03:07:00;;;;;;;1.80;0.73;;;;;23.80;99731.00;;;;2086893;28;20220;-52
2022/09/09 03:08:00;;;;;;;2.07;0.77;;;;;23.90;99715.00;;;;2086322;28;20216;-52
2022/09/09 03:09:02;;;;;;;2.13;0.77;;;;;23.90;99729.00;;;;2086760;28;20688;-54
2022/09/09 03:10:03;;;;;;;1.00;0.60;;;;;23.80;99724.00;;;;2087138;28;20212;-52
2022/09/09 03:11:03;;;;;;;1.60;0.60;;;;;23.90;99722.00;;;;2087002;28;20212;-52
2022/09/09 03:12:04;;;;;;;1.40;0.70;;;;;23.90;99727.00;;;;2086007;28;20550;-52
2022/09/09 03:13:05;;;;;;;3.07;0.63;;;;;23.80;99719.00;;;;2086839;28;20668;-52
2022/09/09 03:14:06;;;;;;;1.20;0.60;;;;;23.80;99727.00;;;;2087299;28;20217;-52
2022/09/09 03:15:07;;;;;;;2.23;0.70;;;;;23.80;99725.00;;;;2087072;28;20212;-52
2022/09/09 03:16:07;;;;;;;1.98;0.80;;;;;23.80;99726.00;;;;2086731;28;20530;-52
2022/09/09 03:17:09;;;;;;;1.70;0.80;;;;;23.80;99726.00;;;;2087210;28;20220;-52
2022/09/09 03:18:09;;;;;;;1.90;0.65;;;;;23.80;99721.00;;;;2086300;28;20209;-52
2022/09/09 03:19:09;;;;;;;1.90;0.87;;;;;23.80;99719.00;;;;2087267;28;20208;-52
2022/09/09 03:20:10;;;;;;;1.37;0.60;;;;;23.80;99716.00;;;;2093460;28;20207;-52
2022/09/09 03:21:10;;;;;;;1.30;0.90;;;;;23.90;99716.00;;;;2095323;28;20215;-52
2022/09/09 03:22:13;;;;;;;0.90;0.50;;;;;23.80;99712.00;;;;2086967;28;20259;-52
2022/09/09 03:23:13;;;;;;;1.00;0.50;;;;;23.80;99720.00;;;;2086921;28;20466;-52
2022/09/09 03:24:13;;;;;;;3.40;0.83;;;;;23.90;99712.00;;;;2089877;28;20209;-52
2022/09/09 03:25:14;;;;;;;1.57;0.67;;;;;23.90;99716.00;;;;2094440;28;20691;-52
2022/09/09 03:26:14;;;;;;;1.33;0.70;;;;;23.80;99716.00;;;;2094637;28;20883;-52
2022/09/09 03:27:15;;;;;;;1.57;0.90;;;;;23.80;99716.00;;;;2094681;28;20281;-52
2022/09/09 03:28:16;;;;;;;2.00;0.65;;;;;23.80;99713.00;;;;2094681;28;20650;-52
2022/09/09 03:29:18;;;;;;;1.80;0.60;;;;;23.90;99717.00;;;;2095243;28;20208;-52
2022/09/09 03:30:19;;;;;;;2.05;0.90;;;;;23.80;99715.00;;;;2095200;28;20228;-52
2022/09/09 03:31:19;;;;;;;1.57;0.87;;;;;23.90;99714.00;;;;2095058;28;20281;-52
2022/09/09 03:32:22;;;;;;;1.10;0.70;;;;;23.90;99719.00;;;;2095156;28;20216;-52
2022/09/09 03:33:22;;;;;;;1.95;0.70;;;;;23.90;99719.00;;;;2095118;28;20239;-52
2022/09/09 03:34:22;;;;;;;2.07;0.80;;;;;23.80;99717.00;;;;2094990;28;20204;-52
2022/09/09 03:35:23;;;;;;;2.40;0.80;;;;;23.80;99717.00;;;;2095206;28;20617;-52
2022/09/09 03:36:26;;;;;;;2.00;0.60;;;;;23.80;99716.00;;;;2095107;28;20208;-51
2022/09/09 03:37:26;;;;;;;1.20;0.60;;;;;23.80;99716.00;;;;2094177;28;20311;-57
2022/09/09 03:38:27;;;;;;;1.33;0.70;;;;;23.80;99717.00;;;;2095222;28;20208;-52
2022/09/09 03:39:28;;;;;;;1.30;0.77;;;;;23.80;99716.00;;;;2095154;28;20691;-52
2022/09/09 03:40:29;;;;;;;1.35;0.70;;;;;23.80;99717.00;;;;2095288;28;20226;-52
2022/09/09 03:41:30;;;;;;;2.10;0.73;;;;;23.80;99716.00;;;;2095114;28;20226;-52
2022/09/09 03:42:31;;;;;;;1.60;1.10;;;;;23.80;99731.00;;;;2095039;28;20216;-52
2022/09/09 03:43:32;;;;;;;1.92;0.90;;;;;23.80;99715.00;;;;2094633;28;20471;-51
2022/09/09 03:44:32;;;;;;;1.30;0.77;;;;;23.80;99718.00;;;;2094456;28;20361;-52
2022/09/09 03:45:33;;;;;;;2.47;0.80;;;;;23.80;99716.00;;;;2094569;28;20574;-52
2022/09/09 03:46:33;;;;;;;1.00;0.53;;;;;23.80;99715.00;;;;2094990;28;20630;-52
2022/09/09 03:47:34;;;;;;;2.13;0.70;;;;;23.80;99723.00;;;;2093566;28;20216;-52
2022/09/09 03:48:34;;;;;;;0.97;0.70;;;;;23.80;99720.00;;;;2095147;28;20561;-52
2022/09/09 03:49:34;;;;;;;1.17;0.60;;;;;23.80;99717.00;;;;2095188;28;20235;-52
2022/09/09 03:50:34;;;;;;;1.57;0.60;;;;;23.80;99722.00;;;;2093986;28;20220;-51
2022/09/09 03:51:36;;;;;;;1.80;0.70;;;;;23.80;99718.00;;;;2086334;28;20286;-52
2022/09/09 03:52:37;;;;;;;1.70;0.60;;;;;23.80;99729.00;;;;2086255;28;20217;-52
2022/09/09 03:53:37;;;;;;;1.20;0.60;;;;;23.80;99712.00;;;;2086348;28;20303;-54
2022/09/09 03:54:39;;;;;;;1.63;0.60;;;;;23.80;99720.00;;;;2085416;28;20217;-53
2022/09/09 03:55:41;;;;;;;2.28;0.80;;;;;23.80;99718.00;;;;2086790;28;20208;-52
2022/09/09 03:56:41;;;;;;;2.38;0.88;;;;;23.80;99716.00;;;;2086823;28;21007;-52
2022/09/09 03:57:42;;;;;;;1.27;0.63;;;;;23.80;99716.00;;;;2086226;28;20223;-52
2022/09/09 03:58:42;;;;;;;2.60;0.67;;;;;23.80;99713.00;;;;2095370;28;20216;-52
2022/09/09 03:59:43;;;;;;;1.43;0.53;;;;;23.80;99720.00;;;;2088390;28;20219;-52
2022/09/09 04:00:44;;;;;;;1.70;0.70;;;;;23.80;99715.00;;;;2084920;28;20209;-52
2022/09/09 04:01:45;;;;;;;1.63;0.73;;;;;23.80;99717.00;;;;2085974;28;20209;-52
2022/09/09 04:02:45;;;;;;;1.20;0.80;;;;;23.80;99708.00;;;;2086879;28;20695;-52
2022/09/09 04:03:46;;;;;;;1.80;0.67;;;;;23.80;99720.00;;;;2086715;28;20295;-52
2022/09/09 04:04:46;;;;;;;3.30;1.00;;;;;23.80;99716.00;;;;2086824;28;20216;-52
2022/09/09 04:05:48;;;;;;;1.17;0.60;;;;;23.80;99712.00;;;;2086657;28;20209;-53
2022/09/09 04:06:50;;;;;;;1.48;0.63;;;;;23.80;99719.00;;;;2086635;28;20672;-52
2022/09/09 04:07:51;;;;;;;1.10;0.60;;;;;23.80;99728.00;;;;2085853;28;20225;-52
2022/09/09 04:08:52;;;;;;;1.90;0.87;;;;;23.80;99714.00;;;;2086770;28;20209;-52
2022/09/09 04:09:53;;;;;;;1.10;0.70;;;;;23.80;99710.00;;;;2086665;28;20217;-52
2022/09/09 04:10:56;;;;;;;1.85;0.80;;;;;23.80;99708.00;;;;2086587;28;20646;-52
2022/09/09 04:11:57;;;;;;;1.60;0.88;;;;;23.80;99719.00;;;;2086851;28;20292;-52
2022/09/09 04:12:57;;;;;;;1.13;0.57;;;;;23.80;99708.00;;;;2086136;28;20225;-52
2022/09/09 04:13:58;;;;;;;1.10;0.63;;;;;23.80;99716.00;;;;2086408;28;20248;-52
2022/09/09 04:14:58;;;;;;;3.33;0.70;;;;;23.80;99711.00;;;;2086770;28;20221;-52
2022/09/09 04:15:59;;;;;;;2.40;0.80;;;;;23.80;99716.00;;;;2086410;28;20718;-52
2022/09/09 04:17:00;;;;;;;2.28;0.90;;;;;23.80;99712.00;;;;2086791;28;20282;-52
2022/09/09 04:18:00;;;;;;;4.00;1.00;;;;;23.80;99709.00;;;;2085786;28;20220;-52
2022/09/09 04:19:01;;;;;;;1.63;0.80;;;;;23.80;99711.00;;;;2086734;28;20271;-52
2022/09/09 04:20:02;;;;;;;1.10;0.80;;;;;23.80;99715.00;;;;2088010;28;20225;-52
2022/09/09 04:21:03;;;;;;;1.80;0.70;;;;;23.80;99715.00;;;;2088255;28;20494;-52
2022/09/09 04:22:04;;;;;;;1.52;0.70;;;;;23.80;99705.00;;;;2092107;28;20522;-52
2022/09/09 04:23:05;;;;;;;1.67;0.70;;;;;23.80;99718.00;;;;2087569;28;20730;-51
2022/09/09 04:24:06;;;;;;;1.10;0.57;;;;;23.80;99715.00;;;;2095659;28;20220;-52
2022/09/09 04:25:07;;;;;;;2.22;0.85;;;;;23.80;99707.00;;;;2096361;28;20223;-52
2022/09/09 04:26:08;;;;;;;2.50;0.83;;;;;23.80;99706.00;;;;2096341;28;20250;-52
2022/09/09 04:27:09;;;;;;;1.00;0.60;;;;;23.80;99708.00;;;;2093634;28;20759;-52
2022/09/09 04:28:09;;;;;;;1.57;0.70;;;;;23.80;99711.00;;;;2086538;28;20215;-52
2022/09/09 04:29:10;;;;;;;2.17;0.90;;;;;23.80;99702.00;;;;2088364;28;20220;-52
2022/09/09 04:30:11;;;;;;;1.40;0.80;;;;;23.80;99711.00;;;;2088419;28;20317;-52
2022/09/09 04:31:21;;;;;;;1.43;0.70;;;;;23.80;99712.00;;;;2088167;28;20462;-52
2022/09/09 04:32:21;;;;;;;1.50;0.98;;;;;23.80;99715.00;;;;2086393;28;20282;-52
2022/09/09 04:33:25;;;;;;;2.17;0.90;;;;;23.80;99710.00;;;;2087461;28;20270;-52
2022/09/09 04:34:26;;;;;;;2.30;0.88;;;;;23.80;99712.00;;;;2087493;28;20209;-52
2022/09/09 04:35:27;;;;;;;2.13;0.73;;;;;23.80;99717.00;;;;2087543;28;20209;-52
2022/09/09 04:36:27;;;;;;;2.37;1.10;;;;;23.80;99715.00;;;;2088038;28;20232;-52
2022/09/09 04:37:28;;;;;;;2.50;0.87;;;;;23.80;99714.00;;;;2092611;28;20469;-52
2022/09/09 04:38:28;;;;;;;1.63;0.67;;;;;23.80;99723.00;;;;2096444;28;20703;-52
2022/09/09 04:39:29;;;;;;;1.23;0.60;;;;;23.80;99711.00;;;;2095053;28;20212;-52
2022/09/09 04:40:30;;;;;;;2.80;0.80;;;;;23.80;99717.00;;;;2095207;28;20216;-52
2022/09/09 04:41:31;;;;;;;1.35;0.82;;;;;23.80;99721.00;;;;2095066;28;20238;-52
2022/09/09 04:42:38;;;;;;;1.20;0.60;;;;;23.80;99719.00;;;;2096433;28;20300;-52
2022/09/09 04:43:39;;;;;;;1.60;1.00;;;;;23.80;99721.00;;;;2096271;28;20518;-52
2022/09/09 04:44:40;;;;;;;1.27;0.63;;;;;23.80;99719.00;;;;2096168;28;20628;-52
2022/09/09 04:45:41;;;;;;;1.70;0.80;;;;;23.80;99720.00;;;;2096197;28;20212;-52
2022/09/09 04:46:42;;;;;;;2.08;0.88;;;;;23.80;99719.00;;;;2096358;28;20358;-52
2022/09/09 04:47:42;;;;;;;1.40;0.87;;;;;23.80;99719.00;;;;2095241;28;20212;-52
2022/09/09 04:48:42;;;;;;;1.60;0.70;;;;;23.80;99722.00;;;;2094002;28;20266;-52
2022/09/09 04:49:43;;;;;;;1.00;0.60;;;;;23.80;99722.00;;;;2087408;28;20288;-52
2022/09/09 04:50:43;;;;;;;2.00;0.87;;;;;23.80;99723.00;;;;2088015;28;20223;-52
2022/09/09 04:51:43;;;;;;;1.60;0.70;;;;;23.70;99720.00;;;;2087192;28;20240;-52
2022/09/09 04:52:44;;;;;;;3.07;1.00;;;;;23.70;99719.00;;;;2087609;28;20216;-52
2022/09/09 04:53:46;;;;;;;1.33;0.70;;;;;23.70;99716.00;;;;2086577;28;20697;-52
2022/09/09 04:54:47;;;;;;;1.48;0.80;;;;;23.80;99716.00;;;;2087717;28;20209;-54
2022/09/09 04:55:49;;;;;;;1.55;0.90;;;;;23.70;99711.00;;;;2087933;28;20239;-52
2022/09/09 04:56:52;;;;;;;1.88;0.77;;;;;23.70;99717.00;;;;2087971;28;20208;-52
2022/09/09 04:57:53;;;;;;;2.50;0.90;;;;;23.80;99720.00;;;;2086944;28;20241;-53
2022/09/09 04:58:55;;;;;;;1.77;0.90;;;;;23.70;99715.00;;;;2087851;28;20234;-52
2022/09/09 04:59:55;;;;;;;1.88;1.00;;;;;23.70;99721.00;;;;2087769;28;20209;-52
2022/09/09 05:01:23;;;;;;;2.47;0.80;;;;;23.70;99722.00;;;;2088006;28;20243;-52
2022/09/09 05:02:23;;;;;;;1.95;0.90;;;;;23.80;99719.00;;;;2094678;28;20224;-53
2022/09/09 05:03:24;;;;;;;1.23;0.70;;;;;23.80;99723.00;;;;2095984;28;20208;-52
2022/09/09 05:04:24;;;;;;;1.50;1.00;;;;;23.80;99720.00;;;;2096186;28;20238;-53
2022/09/09 05:05:25;;;;;;;1.97;0.83;;;;;23.80;99714.00;;;;2096083;28;20204;-52
2022/09/09 05:06:25;;;;;;;1.97;1.10;;;;;23.80;99712.00;;;;2096185;28;20220;-53
2022/09/09 05:07:27;;;;;;;3.93;0.90;;;;;23.70;99727.00;;;;2095182;28;20466;-52
2022/09/09 05:08:27;;;;;;;1.13;0.70;;;;;23.70;99711.00;;;;2096160;28;20243;-53
2022/09/09 05:09:27;;;;;;;2.80;1.00;;;;;23.70;99718.00;;;;2096164;28;20201;-52
2022/09/09 05:10:28;;;;;;;3.37;0.80;;;;;23.70;99712.00;;;;2096252;28;20205;-52
2022/09/09 05:11:32;;;;;;;1.67;0.83;;;;;23.70;99718.00;;;;2095863;28;20265;-52
2022/09/09 05:12:32;;;;;;;3.10;1.02;;;;;23.70;99719.00;;;;2096052;28;20922;-52
2022/09/09 05:13:32;;;;;;;2.20;1.00;;;;;23.70;99712.00;;;;2096207;28;20212;-53
2022/09/09 05:14:33;;;;;;;2.00;0.80;;;;;23.80;99718.00;;;;2096090;28;20720;-52
2022/09/09 05:15:33;;;;;;;2.17;0.93;;;;;23.70;99718.00;;;;2096032;28;20265;-53
2022/09/09 05:16:34;;;;;;;1.30;0.70;;;;;23.80;99716.00;;;;2095990;28;20216;-53
2022/09/09 05:17:34;;;;;;;1.27;0.60;;;;;23.80;99718.00;;;;2095139;28;20656;-52
2022/09/09 05:18:34;;;;;;;3.90;1.30;;;;;23.80;99723.00;;;;2096198;28;20213;-52
2022/09/09 05:19:34;;;;;;;8.10;1.30;;;;;23.80;99721.00;;;;2095800;28;20270;-52
2022/09/09 05:20:35;;;;;;;2.80;0.67;;;;;23.90;99721.00;;;;2095244;28;20212;-53
2022/09/09 05:21:35;;;;;;;1.83;0.70;;;;;23.90;99717.00;;;;2096185;28;20242;-53
2022/09/09 05:22:36;;;;;;;4.20;0.97;;;;;23.90;99713.00;;;;2094746;28;20212;-52